createdAt,value
2019-05-23T00:00:35.282Z,14.80
2019-05-23T00:03:07.009Z,14.80
2019-05-23T00:05:40.560Z,14.80
2019-05-23T00:08:13.819Z,14.70
2019-05-23T00:11:04.189Z,14.70
2019-05-23T00:13:53.681Z,14.70
2019-05-23T00:16:24.372Z,14.70
2019-05-23T00:18:55.903Z,14.60
2019-05-23T00:21:26.086Z,14.60
2019-05-23T00:23:57.102Z,14.60
2019-05-23T00:26:27.699Z,14.60
2019-05-23T00:29:09.628Z,14.60
2019-05-23T00:31:38.087Z,14.60
2019-05-23T00:34:09.285Z,14.60
2019-05-23T00:36:39.954Z,14.50
2019-05-23T00:39:11.691Z,14.50
2019-05-23T00:41:43.094Z,14.50
2019-05-23T00:44:13.343Z,14.50
2019-05-23T00:46:43.894Z,14.40
2019-05-23T00:49:14.265Z,14.40
2019-05-23T00:51:43.860Z,14.40
2019-05-23T00:54:14.713Z,14.40
2019-05-23T00:56:45.533Z,14.30
2019-05-23T00:59:26.520Z,14.30
2019-05-23T01:01:47.712Z,14.30
2019-05-23T01:04:18.258Z,14.30
2019-05-23T01:06:49.469Z,14.20
2019-05-23T01:09:20.807Z,14.20
2019-05-23T01:11:50.553Z,14.30
2019-05-23T01:14:20.565Z,14.20
2019-05-23T01:16:51.157Z,14.20
2019-05-23T01:19:21.568Z,14.20
2019-05-23T01:22:03.192Z,14.20
2019-05-23T01:24:41.451Z,14.10
2019-05-23T01:27:11.131Z,14.10
2019-05-23T01:29:49.609Z,14.10
2019-05-23T01:32:21.837Z,14.10
2019-05-23T01:34:52.763Z,14.10
2019-05-23T01:37:23.282Z,14.10
2019-05-23T01:39:53.017Z,14.10
2019-05-23T01:42:23.642Z,14.10
2019-05-23T01:44:54.765Z,14.10
2019-05-23T01:47:24.856Z,14.10
2019-05-23T01:49:55.442Z,14.00
2019-05-23T01:52:26.778Z,14.10
2019-05-23T01:54:59.243Z,14.00
2019-05-23T01:57:29.269Z,14.10
2019-05-23T02:00:09.988Z,14.00
2019-05-23T02:02:31.002Z,14.10
2019-05-23T02:05:00.771Z,14.00
2019-05-23T02:07:31.497Z,14.00
2019-05-23T02:10:02.106Z,14.00
2019-05-23T02:12:31.782Z,14.00
2019-05-23T02:15:02.955Z,14.00
2019-05-23T02:17:32.658Z,14.00
2019-05-23T02:20:03.165Z,13.90
2019-05-23T02:22:34.158Z,13.90
2019-05-23T02:25:04.839Z,13.90
2019-05-23T02:27:34.445Z,13.90
2019-05-23T02:30:04.441Z,13.80
2019-05-23T02:32:34.279Z,13.80
2019-05-23T02:35:04.515Z,13.70
2019-05-23T02:37:56.102Z,13.70
2019-05-23T02:40:46.770Z,13.70
2019-05-23T02:43:19.034Z,13.60
2019-05-23T02:45:50.751Z,13.60
2019-05-23T02:48:30.377Z,13.50
2019-05-23T02:51:03.205Z,13.50
2019-05-23T02:53:35.463Z,13.50
2019-05-23T02:56:08.279Z,13.50
2019-05-23T02:59:05.201Z,13.40
2019-05-23T03:01:46.376Z,13.40
2019-05-23T03:04:18.202Z,13.40
2019-05-23T03:06:48.353Z,13.30
2019-05-23T03:09:19.654Z,13.30
2019-05-23T03:11:52.237Z,13.30
2019-05-23T03:14:22.516Z,13.30
2019-05-23T03:16:54.518Z,13.20
2019-05-23T03:19:37.326Z,13.20
2019-05-23T03:22:31.021Z,13.10
2019-05-23T03:25:01.611Z,13.10
2019-05-23T03:27:32.418Z,13.00
2019-05-23T03:30:03.617Z,12.90
2019-05-23T03:32:54.556Z,12.90
2019-05-23T03:35:28.373Z,12.90
2019-05-23T03:37:58.957Z,12.90
2019-05-23T03:40:28.602Z,12.80
2019-05-23T03:42:58.597Z,12.80
2019-05-23T03:45:30.887Z,12.80
2019-05-23T03:48:00.997Z,12.80
2019-05-23T03:50:32.202Z,12.80
2019-05-23T03:53:02.030Z,12.90
2019-05-23T03:55:32.942Z,12.90
2019-05-23T03:58:05.526Z,12.90
2019-05-23T04:00:37.632Z,12.90
2019-05-23T04:03:08.050Z,12.90
2019-05-23T04:05:38.709Z,12.90
2019-05-23T04:08:10.104Z,12.90
2019-05-23T04:10:40.213Z,12.90
2019-05-23T04:13:10.669Z,12.90
2019-05-23T04:15:41.794Z,12.90
2019-05-23T04:18:11.939Z,12.90
2019-05-23T04:20:41.517Z,12.90
2019-05-23T04:23:11.342Z,12.90
2019-05-23T04:25:41.841Z,12.90
2019-05-23T04:28:11.564Z,12.90
2019-05-23T04:30:41.136Z,13.00
2019-05-23T04:33:11.639Z,13.00
2019-05-23T04:35:41.208Z,13.10
2019-05-23T04:38:11.162Z,13.10
2019-05-23T04:40:41.226Z,13.10
2019-05-23T04:43:10.829Z,13.20
2019-05-23T04:45:40.442Z,13.10
2019-05-23T04:48:10.164Z,13.20
2019-05-23T04:50:41.205Z,13.20
2019-05-23T04:53:11.014Z,13.30
2019-05-23T04:55:41.307Z,13.30
2019-05-23T04:58:12.877Z,13.30
2019-05-23T05:00:42.446Z,13.30
2019-05-23T05:03:12.046Z,13.30
2019-05-23T05:05:42.165Z,13.40
2019-05-23T05:08:11.923Z,13.40
2019-05-23T05:10:43.095Z,13.40
2019-05-23T05:13:13.113Z,13.40
2019-05-23T05:15:42.685Z,13.40
2019-05-23T05:18:12.251Z,13.40
2019-05-23T05:20:42.925Z,13.50
2019-05-23T05:23:13.356Z,13.50
2019-05-23T05:25:43.467Z,13.50
2019-05-23T05:28:13.120Z,13.50
2019-05-23T05:30:42.997Z,13.50
2019-05-23T05:33:12.542Z,13.50
2019-05-23T05:35:43.992Z,13.50
2019-05-23T05:38:13.562Z,13.60
2019-05-23T05:40:43.209Z,13.60
2019-05-23T05:43:13.286Z,13.60
2019-05-23T05:45:44.061Z,13.60
2019-05-23T05:48:13.629Z,13.70
2019-05-23T05:50:43.436Z,13.70
2019-05-23T05:53:14.039Z,13.70
2019-05-23T05:55:43.650Z,13.70
2019-05-23T05:58:13.329Z,13.80
2019-05-23T06:00:56.683Z,13.80
2019-05-23T06:03:26.548Z,13.80
2019-05-23T06:06:30.189Z,13.80
2019-05-23T06:09:03.219Z,13.90
2019-05-23T06:11:33.061Z,13.90
2019-05-23T06:14:03.052Z,13.90
2019-05-23T06:16:34.889Z,14.00
2019-05-23T06:19:04.857Z,14.00
2019-05-23T06:21:35.015Z,14.00
2019-05-23T06:24:05.697Z,14.10
2019-05-23T06:26:36.552Z,14.10
2019-05-23T06:29:06.315Z,14.20
2019-05-23T06:31:37.237Z,14.20
2019-05-23T06:34:06.824Z,14.20
2019-05-23T06:36:37.137Z,14.20
2019-05-23T06:39:09.400Z,14.30
2019-05-23T06:41:39.305Z,14.30
2019-05-23T06:44:09.943Z,14.40
2019-05-23T06:46:39.545Z,14.50
2019-05-23T06:49:09.239Z,14.50
2019-05-23T06:51:39.376Z,14.60
2019-05-23T06:54:09.810Z,14.60
2019-05-23T06:56:40.533Z,14.60
2019-05-23T06:59:10.678Z,14.70
2019-05-23T07:01:40.394Z,14.70
2019-05-23T07:04:10.253Z,14.80
2019-05-23T07:06:40.349Z,14.80
2019-05-23T07:09:13.946Z,14.90
2019-05-23T07:11:43.564Z,15.00
2019-05-23T07:14:13.237Z,15.00
2019-05-23T07:16:42.869Z,15.10
2019-05-23T07:19:12.917Z,15.10
2019-05-23T07:21:42.609Z,15.20
2019-05-23T07:24:12.789Z,15.20
2019-05-23T07:26:42.434Z,15.30
2019-05-23T07:29:12.118Z,15.30
2019-05-23T07:31:42.205Z,15.40
2019-05-23T07:34:11.806Z,15.40
2019-05-23T07:36:41.708Z,15.40
2019-05-23T07:39:11.966Z,15.50
2019-05-23T07:41:42.431Z,15.50
2019-05-23T07:44:12.048Z,15.50
2019-05-23T07:46:42.728Z,15.60
2019-05-23T07:49:12.376Z,15.60
2019-05-23T07:51:43.194Z,15.60
2019-05-23T07:54:27.460Z,15.70
2019-05-23T07:56:57.430Z,15.70
2019-05-23T07:59:27.923Z,15.80
2019-05-23T08:02:08.027Z,15.80
2019-05-23T08:04:38.572Z,15.80
2019-05-23T08:07:10.329Z,15.90
2019-05-23T08:09:40.563Z,15.90
2019-05-23T08:12:10.533Z,15.90
2019-05-23T08:14:40.161Z,16.00
2019-05-23T08:17:10.413Z,16.00
2019-05-23T08:19:49.081Z,16.10
2019-05-23T08:22:11.724Z,16.10
2019-05-23T08:24:42.078Z,16.20
2019-05-23T08:27:12.487Z,16.20
2019-05-23T08:29:42.388Z,16.30
2019-05-23T08:32:13.147Z,16.30
2019-05-23T08:34:43.414Z,16.30
2019-05-23T08:37:19.224Z,16.40
2019-05-23T08:39:49.762Z,16.40
2019-05-23T08:42:20.250Z,16.50
2019-05-23T08:44:52.024Z,16.50
2019-05-23T08:47:22.405Z,16.50
2019-05-23T08:49:53.175Z,16.60
2019-05-23T08:52:22.774Z,16.60
2019-05-23T08:54:55.893Z,16.60
2019-05-23T08:57:26.186Z,16.70
2019-05-23T08:59:55.812Z,16.70
2019-05-23T09:02:26.005Z,16.70
2019-05-23T09:05:04.610Z,16.80
2019-05-23T09:07:27.715Z,16.80
2019-05-23T09:09:57.908Z,16.80
2019-05-23T09:12:27.495Z,16.90
2019-05-23T09:14:57.189Z,16.90
2019-05-23T09:17:27.098Z,17.00
2019-05-23T09:19:57.046Z,17.00
2019-05-23T09:22:27.251Z,17.00
2019-05-23T09:24:57.050Z,17.10
2019-05-23T09:27:27.590Z,17.10
2019-05-23T09:29:57.199Z,17.20
2019-05-23T09:32:26.900Z,17.20
2019-05-23T09:34:56.526Z,17.30
2019-05-23T09:37:26.536Z,17.30
2019-05-23T09:39:56.119Z,17.30
2019-05-23T09:42:25.846Z,17.40
2019-05-23T09:44:56.411Z,17.40
2019-05-23T09:47:26.047Z,17.50
2019-05-23T09:49:55.708Z,17.50
2019-05-23T09:52:26.270Z,17.60
2019-05-23T09:54:56.329Z,17.60
2019-05-23T09:57:26.610Z,17.70
2019-05-23T09:59:57.035Z,17.70
2019-05-23T10:02:28.444Z,17.80
2019-05-23T10:04:58.761Z,17.80
2019-05-23T10:07:28.437Z,17.80
2019-05-23T10:09:58.005Z,17.70
2019-05-23T10:12:27.627Z,17.80
2019-05-23T10:14:57.703Z,17.90
2019-05-23T10:17:28.586Z,18.00
2019-05-23T10:19:59.241Z,18.10
2019-05-23T10:22:28.866Z,18.20
2019-05-23T10:24:59.007Z,18.30
2019-05-23T10:27:29.668Z,18.40
2019-05-23T10:30:00.025Z,18.60
2019-05-23T10:32:37.601Z,18.60
2019-05-23T10:35:08.081Z,18.70
2019-05-23T10:37:38.837Z,18.80
2019-05-23T10:40:08.444Z,18.80
2019-05-23T10:42:38.266Z,18.80
2019-05-23T10:45:08.962Z,18.80
2019-05-23T10:47:38.580Z,18.80
2019-05-23T10:50:10.132Z,18.80
2019-05-23T10:52:40.012Z,18.90
2019-05-23T10:55:09.977Z,19.00
2019-05-23T10:57:40.072Z,19.10
2019-05-23T11:00:10.969Z,19.20
2019-05-23T11:02:41.805Z,19.30
2019-05-23T11:05:14.047Z,19.40
2019-05-23T11:07:43.890Z,19.50
2019-05-23T11:10:15.499Z,19.60
2019-05-23T11:12:46.016Z,19.80
2019-05-23T11:15:16.810Z,19.80
2019-05-23T11:17:46.899Z,20.00
2019-05-23T11:20:17.434Z,20.10
2019-05-23T11:22:47.043Z,20.30
2019-05-23T11:25:17.434Z,20.40
2019-05-23T11:27:47.576Z,20.50
2019-05-23T11:30:33.388Z,20.70
2019-05-23T11:33:03.012Z,20.80
2019-05-23T11:35:33.068Z,20.90
2019-05-23T11:38:02.698Z,20.90
2019-05-23T11:40:33.802Z,20.90
2019-05-23T11:43:04.169Z,20.90
2019-05-23T11:45:45.930Z,20.90
2019-05-23T11:48:10.396Z,20.90
2019-05-23T11:50:40.375Z,20.90
2019-05-23T11:53:10.079Z,20.90
2019-05-23T11:55:40.892Z,21.00
2019-05-23T11:58:10.976Z,21.00
2019-05-23T12:01:19.829Z,21.10
2019-05-23T12:03:44.533Z,21.20
2019-05-23T12:06:15.123Z,21.40
2019-05-23T12:08:46.094Z,21.50
2019-05-23T12:11:17.436Z,21.60
2019-05-23T12:13:47.060Z,21.70
2019-05-23T12:16:16.979Z,21.80
2019-05-23T12:18:46.604Z,21.90
2019-05-23T12:21:16.222Z,22.00
2019-05-23T12:23:46.280Z,22.10
2019-05-23T12:26:16.270Z,22.20
2019-05-23T12:28:45.887Z,22.30
2019-05-23T12:31:16.495Z,22.40
2019-05-23T12:33:46.160Z,22.50
2019-05-23T12:36:16.913Z,22.60
2019-05-23T12:38:46.551Z,22.70
2019-05-23T12:41:16.624Z,22.80
2019-05-23T12:43:46.638Z,22.90
2019-05-23T12:46:16.787Z,23.00
2019-05-23T12:48:59.461Z,23.20
2019-05-23T12:51:31.905Z,23.30
2019-05-23T12:54:02.549Z,23.40
2019-05-23T12:56:32.205Z,23.50
2019-05-23T12:59:03.700Z,23.60
2019-05-23T13:01:34.857Z,23.70
2019-05-23T13:04:05.220Z,23.90
2019-05-23T13:06:36.670Z,24.00
2019-05-23T13:09:09.282Z,24.10
2019-05-23T13:11:39.473Z,24.30
2019-05-23T13:14:09.890Z,24.40
2019-05-23T13:16:39.597Z,24.60
2019-05-23T13:19:10.280Z,24.70
2019-05-23T13:21:39.909Z,24.90
2019-05-23T13:24:10.936Z,25.00
2019-05-23T13:26:40.737Z,25.10
2019-05-23T13:29:10.561Z,25.30
2019-05-23T13:31:40.242Z,25.40
2019-05-23T13:34:09.916Z,25.50
2019-05-23T13:36:40.243Z,25.60
2019-05-23T13:39:11.822Z,25.70
2019-05-23T13:41:41.871Z,25.70
2019-05-23T13:44:31.290Z,25.80
2019-05-23T13:46:43.029Z,25.90
2019-05-23T13:49:13.765Z,26.00
2019-05-23T13:51:43.553Z,26.10
2019-05-23T13:54:13.252Z,26.20
2019-05-23T13:56:47.557Z,26.30
2019-05-23T13:59:15.246Z,26.40
2019-05-23T14:01:44.970Z,26.50
2019-05-23T14:04:15.043Z,26.60
2019-05-23T14:06:45.057Z,26.60
2019-05-23T14:09:15.543Z,26.70
2019-05-23T14:11:45.153Z,26.80
2019-05-23T14:14:15.566Z,26.90
2019-05-23T14:16:59.369Z,26.80
2019-05-23T14:19:29.788Z,26.80
2019-05-23T14:22:00.148Z,26.80
2019-05-23T14:24:30.262Z,26.70
2019-05-23T14:27:12.534Z,26.60
2019-05-23T14:29:42.556Z,26.50
2019-05-23T14:32:21.339Z,26.40
2019-05-23T14:34:57.897Z,26.40
2019-05-23T14:37:33.242Z,26.50
2019-05-23T14:40:12.339Z,26.50
2019-05-23T14:43:00.190Z,26.60
2019-05-23T14:45:42.990Z,26.70
2019-05-23T14:48:18.681Z,26.80
2019-05-23T14:50:57.566Z,26.90
2019-05-23T14:53:34.721Z,26.90
2019-05-23T14:56:04.802Z,27.00
2019-05-23T14:58:35.228Z,27.00
2019-05-23T15:01:05.962Z,27.00
2019-05-23T15:03:36.570Z,27.00
2019-05-23T15:06:06.273Z,27.10
2019-05-23T15:08:50.299Z,27.20
2019-05-23T15:11:08.076Z,27.30
2019-05-23T15:13:38.669Z,27.40
2019-05-23T15:16:09.490Z,27.50
2019-05-23T15:18:39.124Z,27.50
2019-05-23T15:21:08.821Z,27.60
2019-05-23T15:23:39.298Z,27.70
2019-05-23T15:26:22.503Z,27.80
2019-05-23T15:28:42.089Z,27.90
2019-05-23T15:31:12.256Z,27.90
2019-05-23T15:33:42.341Z,28.00
2019-05-23T15:36:12.453Z,28.00
2019-05-23T15:38:42.505Z,28.10
2019-05-23T15:41:12.123Z,28.10
2019-05-23T15:43:41.751Z,28.10
2019-05-23T15:46:11.905Z,28.20
2019-05-23T15:48:43.140Z,28.20
2019-05-23T15:51:15.248Z,28.20
2019-05-23T15:53:54.969Z,28.30
2019-05-23T15:56:37.369Z,28.40
2019-05-23T15:59:25.173Z,28.40
2019-05-23T16:02:05.995Z,28.50
2019-05-23T16:04:36.105Z,28.50
2019-05-23T16:07:06.806Z,28.60
2019-05-23T16:09:37.104Z,28.60
2019-05-23T16:12:07.591Z,28.70
2019-05-23T16:14:37.310Z,28.70
2019-05-23T16:17:07.805Z,28.70
2019-05-23T16:19:38.027Z,28.70
2019-05-23T16:22:07.688Z,28.80
2019-05-23T16:24:38.238Z,28.80
2019-05-23T16:27:08.851Z,28.80
2019-05-23T16:29:40.455Z,28.80
2019-05-23T16:32:10.478Z,28.80
2019-05-23T16:34:40.985Z,28.80
2019-05-23T16:37:10.562Z,28.70
2019-05-23T16:39:47.669Z,28.70
2019-05-23T16:42:12.185Z,28.70
2019-05-23T16:44:42.885Z,28.70
2019-05-23T16:47:13.025Z,28.60
2019-05-23T16:49:43.441Z,28.60
2019-05-23T16:52:13.442Z,28.60
2019-05-23T16:54:45.981Z,28.60
2019-05-23T16:57:25.499Z,28.60
2019-05-23T17:00:20.669Z,28.60
2019-05-23T17:03:12.752Z,28.60
2019-05-23T17:06:16.337Z,28.60
2019-05-23T17:09:00.315Z,28.50
2019-05-23T17:11:47.924Z,28.40
2019-05-23T17:14:27.022Z,28.30
2019-05-23T17:17:42.962Z,28.20
2019-05-23T17:20:19.205Z,28.10
2019-05-23T17:22:56.491Z,28.00
2019-05-23T17:25:48.486Z,27.90
2019-05-23T17:28:40.132Z,27.70
2019-05-23T17:31:12.930Z,27.50
2019-05-23T17:33:43.836Z,27.30
2019-05-23T17:36:13.899Z,27.10
2019-05-23T17:38:43.989Z,27.00
2019-05-23T17:41:14.164Z,26.80
2019-05-23T17:43:44.242Z,26.80
2019-05-23T17:46:14.245Z,26.60
2019-05-23T17:48:43.866Z,26.50
2019-05-23T17:51:14.288Z,26.40
2019-05-23T17:53:44.459Z,26.30
2019-05-23T17:56:14.631Z,26.10
2019-05-23T17:58:44.394Z,26.10
2019-05-23T18:01:16.485Z,25.90
2019-05-23T18:03:47.246Z,25.80
2019-05-23T18:06:16.896Z,25.70
2019-05-23T18:08:47.690Z,25.60
2019-05-23T18:11:17.789Z,25.50
2019-05-23T18:13:52.441Z,25.40
2019-05-23T18:16:23.333Z,25.30
2019-05-23T18:18:52.970Z,25.10
2019-05-23T18:21:24.822Z,25.00
2019-05-23T18:23:55.673Z,24.90
2019-05-23T18:26:26.639Z,24.80
2019-05-23T18:28:56.671Z,24.70
2019-05-23T18:31:27.924Z,24.60
2019-05-23T18:33:58.080Z,24.60
2019-05-23T18:36:29.404Z,24.50
2019-05-23T18:38:59.597Z,24.40
2019-05-23T18:41:32.730Z,24.30
2019-05-23T18:44:03.807Z,24.20
2019-05-23T18:46:38.082Z,24.10
2019-05-23T18:49:09.702Z,24.00
2019-05-23T18:51:41.064Z,23.90
2019-05-23T18:54:11.250Z,23.70
2019-05-23T18:56:40.942Z,23.70
2019-05-23T18:59:12.069Z,23.60
2019-05-23T19:01:41.993Z,23.50
2019-05-23T19:04:12.305Z,23.40
2019-05-23T19:06:42.003Z,23.30
2019-05-23T19:09:15.523Z,23.20
2019-05-23T19:11:46.411Z,23.10
2019-05-23T19:14:16.113Z,23.10
2019-05-23T19:16:45.999Z,22.90
2019-05-23T19:19:16.827Z,22.80
2019-05-23T19:21:46.443Z,22.70
2019-05-23T19:24:16.825Z,22.60
2019-05-23T19:26:48.622Z,22.50
2019-05-23T19:29:19.472Z,22.40
2019-05-23T19:31:49.692Z,22.30
2019-05-23T19:34:21.965Z,22.30
2019-05-23T19:36:59.658Z,22.20
2019-05-23T19:39:30.154Z,22.10
2019-05-23T19:41:59.866Z,22.10
2019-05-23T19:44:32.621Z,22.00
2019-05-23T19:47:02.903Z,22.00
2019-05-23T19:49:32.886Z,21.90
2019-05-23T19:52:04.795Z,21.90
2019-05-23T19:54:34.433Z,21.80
2019-05-23T19:57:04.600Z,21.80
2019-05-23T19:59:34.606Z,21.70
2019-05-23T20:02:26.882Z,21.70
2019-05-23T20:05:10.686Z,21.60
2019-05-23T20:07:40.360Z,21.50
2019-05-23T20:10:10.161Z,21.50
2019-05-23T20:12:39.801Z,21.40
2019-05-23T20:15:10.157Z,21.40
2019-05-23T20:17:40.242Z,21.40
2019-05-23T20:20:10.635Z,21.30
2019-05-23T20:22:41.376Z,21.30
2019-05-23T20:25:11.101Z,21.30
2019-05-23T20:27:41.202Z,21.30
2019-05-23T20:30:13.122Z,21.20
2019-05-23T20:32:42.781Z,21.20
2019-05-23T20:35:12.897Z,21.10
2019-05-23T20:37:42.897Z,21.00
2019-05-23T20:40:12.931Z,21.00
2019-05-23T20:42:43.436Z,21.00
2019-05-23T20:45:13.412Z,21.00
2019-05-23T20:47:43.038Z,20.90
2019-05-23T20:50:12.625Z,20.90
2019-05-23T20:52:42.255Z,20.90
2019-05-23T20:55:12.833Z,20.80
2019-05-23T20:57:42.965Z,20.80
2019-05-23T21:00:15.864Z,20.70
2019-05-23T21:02:45.857Z,20.70
2019-05-23T21:05:16.117Z,20.70
2019-05-23T21:07:45.782Z,20.60
2019-05-23T21:10:23.313Z,20.50
2019-05-23T21:12:52.937Z,20.50
2019-05-23T21:15:22.517Z,20.50
2019-05-23T21:17:52.141Z,20.40
2019-05-23T21:20:21.721Z,20.40
2019-05-23T21:22:51.338Z,20.30
2019-05-23T21:25:21.442Z,20.30
2019-05-23T21:27:51.050Z,20.30
2019-05-23T21:30:20.746Z,20.20
2019-05-23T21:32:51.172Z,20.10
2019-05-23T21:35:21.202Z,20.10
2019-05-23T21:37:51.198Z,20.00
2019-05-23T21:40:58.216Z,19.90
2019-05-23T21:43:27.824Z,19.90
2019-05-23T21:45:57.427Z,19.80
2019-05-23T21:48:27.401Z,19.70
2019-05-23T21:50:57.417Z,19.60
2019-05-23T21:53:27.565Z,19.60
2019-05-23T21:55:57.641Z,19.50
2019-05-23T21:58:27.581Z,19.50
2019-05-23T22:01:29.293Z,19.50
2019-05-23T22:04:20.858Z,19.50
2019-05-23T22:06:56.694Z,19.40
2019-05-23T22:09:26.318Z,19.40
2019-05-23T22:11:56.009Z,19.40
2019-05-23T22:14:25.630Z,19.30
2019-05-23T22:16:55.624Z,19.30
2019-05-23T22:19:26.148Z,19.30
2019-05-23T22:21:56.195Z,19.20
2019-05-23T22:24:26.281Z,19.20
2019-05-23T22:26:56.386Z,19.20
2019-05-23T22:29:26.004Z,19.20
2019-05-23T22:31:56.487Z,19.10
2019-05-23T22:34:54.577Z,19.10
2019-05-23T22:37:28.932Z,19.10
2019-05-23T22:39:58.618Z,19.10
2019-05-23T22:42:30.022Z,19.00
2019-05-23T22:45:00.145Z,19.00
2019-05-23T22:47:30.653Z,18.90
2019-05-23T22:50:00.777Z,18.90
2019-05-23T22:52:30.378Z,18.80
2019-05-23T22:54:59.986Z,18.80
2019-05-23T22:57:29.557Z,18.80
2019-05-23T23:00:00.001Z,18.80
2019-05-23T23:02:29.572Z,18.70
2019-05-23T23:04:59.193Z,18.70
2019-05-23T23:07:29.073Z,18.60
2019-05-23T23:09:58.868Z,18.60
2019-05-23T23:12:29.245Z,18.60
2019-05-23T23:14:58.884Z,18.50
2019-05-23T23:17:28.556Z,18.50
2019-05-23T23:19:58.360Z,18.50
2019-05-23T23:22:28.885Z,18.40
2019-05-23T23:24:58.588Z,18.40
2019-05-23T23:27:29.131Z,18.40
2019-05-23T23:29:58.733Z,18.30
2019-05-23T23:32:28.336Z,18.30
2019-05-23T23:34:57.954Z,18.20
2019-05-23T23:37:27.567Z,18.20
2019-05-23T23:39:57.158Z,18.10
2019-05-23T23:42:27.212Z,18.10
2019-05-23T23:45:14.762Z,18.00
2019-05-23T23:48:01.863Z,18.00
2019-05-23T23:50:49.029Z,17.90
2019-05-23T23:53:36.988Z,17.80
2019-05-23T23:56:24.130Z,17.80
2019-05-23T23:58:52.675Z,17.70
